createdAt,value
2022-11-06T00:00:45.252Z,3.40
2022-11-06T00:03:31.972Z,3.20
2022-11-06T00:06:39.116Z,3.20
2022-11-06T00:09:25.777Z,3.20
2022-11-06T00:12:14.265Z,3.20
2022-11-06T00:15:00.930Z,3.10
2022-11-06T00:17:52.144Z,3.00
2022-11-06T00:20:38.935Z,3.00
2022-11-06T00:23:27.169Z,3.00
2022-11-06T00:26:16.720Z,3.00
2022-11-06T00:29:06.121Z,3.00
2022-11-06T00:31:52.989Z,3.10
2022-11-06T00:34:41.132Z,3.10
2022-11-06T00:37:27.844Z,3.20
2022-11-06T00:40:16.169Z,3.20
2022-11-06T00:43:02.923Z,3.30
2022-11-06T00:45:51.109Z,3.30
2022-11-06T00:48:39.384Z,3.30
2022-11-06T00:51:31.222Z,3.30
2022-11-06T00:54:18.641Z,3.30
2022-11-06T00:57:07.104Z,3.20
2022-11-06T00:59:53.799Z,3.20
2022-11-06T01:02:42.304Z,3.20
2022-11-06T01:05:29.185Z,3.20
2022-11-06T01:08:17.107Z,3.20
2022-11-06T01:11:12.663Z,3.00
2022-11-06T01:14:02.114Z,3.00
2022-11-06T01:16:49.118Z,2.90
2022-11-06T01:19:38.111Z,3.10
2022-11-06T01:22:24.855Z,3.10
2022-11-06T01:25:13.118Z,3.10
2022-11-06T01:27:59.838Z,3.00
2022-11-06T01:30:48.085Z,3.00
2022-11-06T01:33:34.882Z,3.00
2022-11-06T01:36:24.133Z,3.00
2022-11-06T01:39:13.630Z,2.90
2022-11-06T01:42:02.097Z,2.90
2022-11-06T01:45:34.074Z,2.90
2022-11-06T01:48:26.113Z,2.90
2022-11-06T01:51:13.965Z,2.90
2022-11-06T01:54:02.100Z,3.00
2022-11-06T01:56:51.339Z,3.00
2022-11-06T01:59:42.459Z,3.00
2022-11-06T02:02:29.379Z,2.90
2022-11-06T02:05:16.901Z,2.90
2022-11-06T02:08:04.256Z,2.80
2022-11-06T02:10:53.292Z,3.00
2022-11-06T02:13:56.822Z,3.00
2022-11-06T02:17:02.073Z,2.90
2022-11-06T02:20:06.904Z,2.80
2022-11-06T02:23:17.068Z,2.80
2022-11-06T02:26:29.361Z,2.70
2022-11-06T02:29:24.067Z,2.70
2022-11-06T02:32:15.823Z,2.70
2022-11-06T02:35:15.057Z,2.70
2022-11-06T02:38:07.337Z,2.70
2022-11-06T02:40:59.107Z,2.70
2022-11-06T02:43:49.815Z,2.70
2022-11-06T02:46:54.103Z,2.60
2022-11-06T02:49:47.236Z,2.60
2022-11-06T02:52:45.097Z,2.80
2022-11-06T02:55:45.400Z,2.80
2022-11-06T02:58:39.228Z,2.80
2022-11-06T03:01:31.871Z,2.70
2022-11-06T03:04:35.063Z,2.70
2022-11-06T03:07:36.813Z,2.70
2022-11-06T03:10:31.073Z,2.70
2022-11-06T03:13:22.903Z,2.50
2022-11-06T03:16:27.070Z,2.30
2022-11-06T03:19:35.081Z,2.10
2022-11-06T03:22:43.132Z,2.20
2022-11-06T03:25:59.900Z,2.20
2022-11-06T03:29:02.039Z,2.20
2022-11-06T03:31:56.254Z,2.30
2022-11-06T03:34:59.049Z,2.30
2022-11-06T03:37:53.964Z,2.40
2022-11-06T03:40:46.208Z,2.30
2022-11-06T03:43:36.538Z,2.20
2022-11-06T03:46:27.049Z,2.20
2022-11-06T03:49:20.839Z,2.20
2022-11-06T03:52:16.058Z,2.20
2022-11-06T03:55:14.671Z,2.10
2022-11-06T03:58:10.234Z,2.10
2022-11-06T04:00:59.580Z,2.00
2022-11-06T04:03:57.041Z,1.90
2022-11-06T04:07:15.949Z,1.90
2022-11-06T04:10:26.033Z,1.80
2022-11-06T04:13:48.257Z,1.80
2022-11-06T04:16:49.036Z,1.70
2022-11-06T04:19:35.737Z,1.70
2022-11-06T04:22:50.081Z,1.70
2022-11-06T04:26:14.373Z,1.70
2022-11-06T04:29:30.069Z,1.90
2022-11-06T04:32:38.128Z,2.10
2022-11-06T04:35:38.060Z,2.00
2022-11-06T04:38:47.731Z,2.00
2022-11-06T04:41:40.037Z,2.00
2022-11-06T04:44:33.146Z,2.00
2022-11-06T04:47:24.020Z,1.90
2022-11-06T04:50:13.476Z,1.90
2022-11-06T04:53:03.056Z,1.90
2022-11-06T04:55:53.911Z,1.90
2022-11-06T04:58:42.008Z,1.90
2022-11-06T05:01:28.754Z,1.90
2022-11-06T05:04:17.025Z,1.90
2022-11-06T05:07:03.989Z,1.90
2022-11-06T05:09:52.024Z,2.00
2022-11-06T05:12:38.751Z,1.90
2022-11-06T05:15:27.055Z,1.90
2022-11-06T05:18:14.113Z,1.90
2022-11-06T05:21:22.019Z,2.00
2022-11-06T05:24:08.800Z,2.00
2022-11-06T05:26:59.621Z,1.90
2022-11-06T05:29:46.613Z,1.90
2022-11-06T05:32:34.988Z,1.90
2022-11-06T05:35:22.036Z,1.90
2022-11-06T05:38:10.189Z,1.80
2022-11-06T05:40:57.308Z,1.90
2022-11-06T05:43:46.033Z,1.80
2022-11-06T05:46:48.121Z,1.80
2022-11-06T05:49:37.006Z,1.80
2022-11-06T05:52:23.701Z,1.80
2022-11-06T05:55:15.077Z,1.80
2022-11-06T05:58:01.913Z,1.80
2022-11-06T06:00:52.017Z,1.80
2022-11-06T06:03:38.719Z,1.70
2022-11-06T06:06:26.997Z,1.80
2022-11-06T06:09:13.716Z,1.80
2022-11-06T06:12:02.006Z,1.90
2022-11-06T06:14:50.510Z,1.90
2022-11-06T06:17:38.984Z,1.80
2022-11-06T06:20:25.764Z,1.70
2022-11-06T06:23:14.017Z,1.70
2022-11-06T06:26:00.825Z,1.60
2022-11-06T06:28:52.005Z,1.50
2022-11-06T06:31:38.675Z,1.50
2022-11-06T06:34:26.980Z,1.50
2022-11-06T06:37:17.620Z,1.60
2022-11-06T06:40:09.027Z,1.60
2022-11-06T06:42:57.181Z,1.70
2022-11-06T06:45:45.000Z,1.80
2022-11-06T06:48:31.980Z,1.90
2022-11-06T06:51:23.885Z,1.90
2022-11-06T06:54:11.153Z,1.90
2022-11-06T06:56:58.979Z,2.00
2022-11-06T06:59:45.569Z,1.80
2022-11-06T07:02:34.022Z,2.00
2022-11-06T07:05:21.024Z,1.80
2022-11-06T07:08:08.966Z,1.60
2022-11-06T07:11:00.492Z,1.60
2022-11-06T07:13:48.985Z,1.70
2022-11-06T07:16:35.729Z,1.80
2022-11-06T07:19:23.970Z,1.80
2022-11-06T07:22:10.694Z,1.80
2022-11-06T07:24:58.994Z,1.90
2022-11-06T07:27:45.710Z,2.00
2022-11-06T07:30:33.537Z,2.00
2022-11-06T07:33:20.120Z,2.00
2022-11-06T07:36:09.922Z,2.10
2022-11-06T07:38:58.265Z,2.20
2022-11-06T07:41:45.000Z,2.40
2022-11-06T07:44:31.709Z,2.60
2022-11-06T07:47:18.407Z,2.70
2022-11-06T07:50:05.707Z,2.80
2022-11-06T07:52:52.970Z,2.90
2022-11-06T07:55:42.418Z,3.10
2022-11-06T07:58:29.745Z,3.20
2022-11-06T08:01:18.960Z,3.30
2022-11-06T08:04:05.916Z,3.20
2022-11-06T08:06:52.572Z,3.20
2022-11-06T08:09:40.981Z,3.30
2022-11-06T08:12:27.796Z,3.50
2022-11-06T08:15:15.937Z,3.40
2022-11-06T08:18:02.685Z,3.50
2022-11-06T08:20:53.958Z,3.40
2022-11-06T08:23:40.712Z,3.40
2022-11-06T08:26:28.928Z,3.50
2022-11-06T08:29:16.989Z,3.70
2022-11-06T08:32:06.937Z,3.80
2022-11-06T08:34:53.760Z,4.10
2022-11-06T08:37:41.950Z,4.50
2022-11-06T08:40:31.227Z,4.70
2022-11-06T08:43:26.004Z,4.80
2022-11-06T08:46:12.901Z,4.70
2022-11-06T08:49:01.024Z,4.60
2022-11-06T08:51:47.715Z,4.80
2022-11-06T08:54:35.968Z,4.80
2022-11-06T08:57:22.805Z,4.80
2022-11-06T09:00:13.922Z,4.80
2022-11-06T09:03:05.872Z,5.00
2022-11-06T09:05:53.986Z,4.90
2022-11-06T09:08:40.666Z,4.80
2022-11-06T09:11:30.925Z,4.80
2022-11-06T09:14:17.610Z,4.60
2022-11-06T09:17:05.945Z,4.60
2022-11-06T09:19:53.163Z,4.50
2022-11-06T09:22:43.021Z,4.60
2022-11-06T09:25:30.270Z,4.70
2022-11-06T09:28:18.929Z,4.80
2022-11-06T09:31:08.981Z,4.80
2022-11-06T09:33:57.929Z,4.90
2022-11-06T09:36:44.630Z,4.90
2022-11-06T09:39:32.904Z,5.10
2022-11-06T09:42:46.348Z,5.00
2022-11-06T09:45:38.901Z,4.70
2022-11-06T09:48:45.437Z,4.70
2022-11-06T09:51:36.897Z,5.00
2022-11-06T09:54:27.416Z,5.30
2022-11-06T09:57:41.950Z,5.60
2022-11-06T10:00:31.832Z,5.90
2022-11-06T10:03:30.698Z,6.10
2022-11-06T10:06:21.231Z,6.10
2022-11-06T10:09:09.939Z,6.10
2022-11-06T10:12:10.849Z,6.10
2022-11-06T10:15:23.908Z,6.20
2022-11-06T10:18:23.629Z,6.40
2022-11-06T10:21:20.904Z,6.60
2022-11-06T10:24:44.174Z,6.80
2022-11-06T10:27:38.928Z,7.30
2022-11-06T10:30:29.241Z,7.40
2022-11-06T10:33:36.953Z,7.60
2022-11-06T10:36:29.756Z,8.10
2022-11-06T10:39:23.924Z,8.10
2022-11-06T10:42:18.885Z,8.20
2022-11-06T10:45:18.916Z,8.30
2022-11-06T10:48:27.418Z,8.10
2022-11-06T10:51:33.922Z,8.00
2022-11-06T10:54:39.262Z,7.90
2022-11-06T10:57:42.881Z,8.00
2022-11-06T11:00:29.781Z,8.50
2022-11-06T11:03:38.878Z,9.20
2022-11-06T11:06:25.688Z,10.50
2022-11-06T11:09:36.086Z,12.50
2022-11-06T11:12:28.514Z,16.20
2022-11-06T11:15:20.782Z,20.60
2022-11-06T11:18:34.136Z,23.30
2022-11-06T11:21:30.368Z,23.20
2022-11-06T11:24:17.057Z,22.10
2022-11-06T11:27:14.510Z,19.90
2022-11-06T11:30:05.036Z,19.10
2022-11-06T11:32:52.758Z,20.70
2022-11-06T11:35:39.393Z,23.80
2022-11-06T11:38:26.951Z,26.90
2022-11-06T11:41:20.970Z,29.10
2022-11-06T11:44:17.122Z,30.50
2022-11-06T11:47:24.300Z,31.00
2022-11-06T11:50:19.280Z,31.00
2022-11-06T11:53:22.158Z,30.80
2022-11-06T11:56:36.242Z,29.20
2022-11-06T11:59:43.301Z,27.90
2022-11-06T12:02:43.366Z,27.90
2022-11-06T12:05:30.034Z,26.70
2022-11-06T12:08:27.622Z,24.20
2022-11-06T12:11:20.585Z,23.90
2022-11-06T12:14:38.303Z,21.90
2022-11-06T12:17:25.147Z,19.60
2022-11-06T12:20:17.778Z,17.50
2022-11-06T12:23:13.339Z,16.60
2022-11-06T12:26:10.189Z,17.10
2022-11-06T12:29:08.817Z,17.20
2022-11-06T12:32:11.013Z,16.10
2022-11-06T12:35:16.690Z,15.00
2022-11-06T12:38:27.825Z,14.30
2022-11-06T12:41:21.853Z,13.60
2022-11-06T12:44:12.560Z,13.20
2022-11-06T12:47:08.216Z,12.70
2022-11-06T12:50:12.208Z,12.20
2022-11-06T12:53:29.848Z,11.70
2022-11-06T12:56:32.918Z,11.20
2022-11-06T12:59:34.966Z,10.60
2022-11-06T13:02:30.483Z,10.20
2022-11-06T13:05:23.089Z,10.10
2022-11-06T13:08:16.627Z,10.00
2022-11-06T13:11:13.518Z,9.80
2022-11-06T13:14:16.977Z,9.60
2022-11-06T13:17:40.965Z,9.40
2022-11-06T13:20:59.812Z,9.30
2022-11-06T13:23:51.448Z,9.20
2022-11-06T13:27:04.299Z,8.90
2022-11-06T13:29:53.026Z,8.90
2022-11-06T13:32:49.757Z,8.90
2022-11-06T13:35:43.111Z,8.60
2022-11-06T13:38:39.497Z,8.60
2022-11-06T13:41:30.106Z,8.30
2022-11-06T13:44:20.032Z,8.10
2022-11-06T13:47:21.973Z,8.20
2022-11-06T13:50:14.732Z,8.20
2022-11-06T13:53:18.934Z,8.20
2022-11-06T13:56:23.857Z,8.20
2022-11-06T13:59:31.227Z,8.00
2022-11-06T14:02:26.373Z,7.90
2022-11-06T14:05:49.268Z,7.90
2022-11-06T14:08:49.481Z,8.00
2022-11-06T14:11:42.651Z,8.20
2022-11-06T14:14:34.030Z,8.60
2022-11-06T14:17:23.744Z,9.10
2022-11-06T14:20:38.038Z,9.40
2022-11-06T14:23:31.021Z,9.10
2022-11-06T14:26:38.651Z,8.80
2022-11-06T14:29:28.601Z,8.60
2022-11-06T14:32:22.386Z,8.40
2022-11-06T14:35:31.330Z,8.10
2022-11-06T14:38:31.696Z,8.00
2022-11-06T14:41:38.698Z,7.90
2022-11-06T14:44:47.084Z,7.90
2022-11-06T14:47:38.492Z,7.80
2022-11-06T14:50:40.604Z,7.80
2022-11-06T14:53:53.548Z,7.70
2022-11-06T14:56:40.331Z,7.50
2022-11-06T14:59:40.216Z,7.20
2022-11-06T15:02:30.555Z,7.10
2022-11-06T15:05:19.700Z,7.10
2022-11-06T15:08:06.652Z,7.10
2022-11-06T15:10:54.185Z,7.10
2022-11-06T15:13:40.956Z,7.10
2022-11-06T15:16:33.705Z,7.10
2022-11-06T15:19:27.155Z,7.20
2022-11-06T15:22:38.192Z,7.10
2022-11-06T15:25:29.858Z,7.00
2022-11-06T15:28:24.568Z,6.90
2022-11-06T15:31:19.019Z,6.90
2022-11-06T15:34:37.381Z,6.80
2022-11-06T15:37:31.749Z,6.70
2022-11-06T15:40:32.001Z,6.60
2022-11-06T15:43:33.197Z,6.60
2022-11-06T15:46:25.704Z,6.60
2022-11-06T15:49:21.727Z,6.60
2022-11-06T15:52:18.204Z,6.70
2022-11-06T15:55:06.271Z,6.60
2022-11-06T15:57:54.362Z,6.50
2022-11-06T16:00:41.591Z,6.40
2022-11-06T16:03:32.051Z,6.50
2022-11-06T16:06:19.526Z,6.50
2022-11-06T16:09:13.760Z,6.40
2022-11-06T16:12:00.748Z,6.30
2022-11-06T16:14:47.538Z,6.30
2022-11-06T16:17:34.358Z,6.30
2022-11-06T16:20:21.146Z,6.30
2022-11-06T16:23:13.213Z,6.30
2022-11-06T16:26:03.785Z,6.40
2022-11-06T16:28:51.770Z,6.30
2022-11-06T16:31:40.082Z,6.40
2022-11-06T16:34:45.715Z,6.40
2022-11-06T16:37:38.070Z,6.40
2022-11-06T16:40:52.149Z,6.30
2022-11-06T16:43:38.954Z,6.30
2022-11-06T16:47:04.093Z,6.30
2022-11-06T16:49:54.466Z,6.30
2022-11-06T16:52:41.540Z,6.40
2022-11-06T16:55:30.638Z,6.50
2022-11-06T16:58:17.809Z,6.40
2022-11-06T17:01:06.576Z,6.30
2022-11-06T17:03:59.205Z,6.30
2022-11-06T17:06:46.622Z,6.30
2022-11-06T17:09:34.986Z,6.20
2022-11-06T17:12:21.764Z,6.10
2022-11-06T17:15:10.100Z,6.10
2022-11-06T17:17:56.835Z,6.00
2022-11-06T17:20:51.141Z,6.00
2022-11-06T17:23:38.235Z,6.10
2022-11-06T17:26:32.798Z,6.10
2022-11-06T17:29:22.435Z,6.10
2022-11-06T17:32:09.373Z,6.10
2022-11-06T17:34:56.208Z,6.20
2022-11-06T17:37:42.937Z,6.20
2022-11-06T17:40:30.873Z,6.30
2022-11-06T17:43:17.935Z,6.40
2022-11-06T17:46:05.110Z,6.40
2022-11-06T17:48:51.929Z,6.40
2022-11-06T17:51:52.719Z,6.50
2022-11-06T17:54:42.381Z,6.50
2022-11-06T17:57:29.324Z,6.40
2022-11-06T18:00:16.449Z,6.50
2022-11-06T18:03:03.775Z,6.60
2022-11-06T18:05:50.760Z,6.60
2022-11-06T18:08:40.485Z,6.70
2022-11-06T18:11:27.856Z,6.70
2022-11-06T18:14:15.198Z,6.70
2022-11-06T18:17:02.047Z,6.80
2022-11-06T18:19:48.920Z,6.80
2022-11-06T18:22:38.791Z,6.80
2022-11-06T18:25:25.552Z,6.80
2022-11-06T18:28:12.355Z,6.80
2022-11-06T18:30:59.316Z,6.70
2022-11-06T18:33:46.321Z,6.80
2022-11-06T18:36:35.773Z,6.80
2022-11-06T18:39:22.552Z,6.80
2022-11-06T18:42:09.695Z,6.70
2022-11-06T18:44:57.390Z,6.60
2022-11-06T18:47:44.197Z,6.50
2022-11-06T18:50:31.207Z,6.50
2022-11-06T18:53:18.199Z,6.50
2022-11-06T18:56:05.644Z,6.50
2022-11-06T18:58:54.557Z,6.60
2022-11-06T19:01:41.559Z,6.70
2022-11-06T19:04:28.753Z,6.80
2022-11-06T19:07:15.754Z,7.20
2022-11-06T19:10:02.717Z,7.50
2022-11-06T19:12:50.403Z,7.80
2022-11-06T19:15:38.177Z,8.00
2022-11-06T19:18:33.013Z,8.20
2022-11-06T19:21:20.280Z,8.40
2022-11-06T19:24:08.339Z,8.50
2022-11-06T19:26:55.727Z,8.50
2022-11-06T19:29:42.739Z,8.60
2022-11-06T19:32:30.118Z,8.50
2022-11-06T19:35:18.146Z,8.50
2022-11-06T19:38:04.847Z,8.50
2022-11-06T19:41:00.387Z,8.40
2022-11-06T19:43:47.132Z,8.20
2022-11-06T19:46:36.128Z,8.00
2022-11-06T19:49:23.120Z,7.90
2022-11-06T19:52:41.829Z,7.70
2022-11-06T19:55:25.890Z,7.70
2022-11-06T19:58:19.300Z,7.60
2022-11-06T20:01:10.708Z,7.50
2022-11-06T20:03:59.722Z,7.40
2022-11-06T20:06:46.422Z,7.50
2022-11-06T20:09:35.718Z,7.60
2022-11-06T20:12:23.655Z,7.60
2022-11-06T20:15:11.732Z,7.70
2022-11-06T20:17:58.481Z,7.60
2022-11-06T20:20:47.761Z,7.90
2022-11-06T20:23:36.260Z,8.00
2022-11-06T20:26:25.734Z,8.10
2022-11-06T20:29:12.497Z,8.20
2022-11-06T20:32:00.739Z,8.30
2022-11-06T20:34:47.724Z,8.40
2022-11-06T20:37:36.729Z,8.50
2022-11-06T20:40:23.455Z,8.50
2022-11-06T20:43:13.921Z,8.50
2022-11-06T20:46:02.816Z,8.50
2022-11-06T20:48:51.805Z,8.60
2022-11-06T20:51:59.927Z,8.60
2022-11-06T20:54:47.897Z,8.60
2022-11-06T20:57:34.697Z,8.70
2022-11-06T21:00:22.719Z,8.70
2022-11-06T21:03:10.040Z,8.70
2022-11-06T21:05:58.722Z,8.80
2022-11-06T21:08:46.002Z,8.80
2022-11-06T21:11:34.729Z,8.90
2022-11-06T21:14:21.992Z,8.90
2022-11-06T21:17:08.865Z,8.90
2022-11-06T21:19:55.594Z,8.90
2022-11-06T21:22:42.325Z,8.90
2022-11-06T21:25:29.012Z,8.90
2022-11-06T21:28:15.785Z,8.90
2022-11-06T21:31:02.566Z,8.90
2022-11-06T21:33:51.766Z,8.80
2022-11-06T21:36:38.557Z,8.80
2022-11-06T21:39:25.354Z,8.70
2022-11-06T21:42:12.131Z,8.50
2022-11-06T21:44:58.871Z,8.40
2022-11-06T21:47:48.826Z,8.20
2022-11-06T21:50:35.601Z,8.20
2022-11-06T21:53:41.048Z,8.30
2022-11-06T21:56:28.208Z,8.40
2022-11-06T21:59:16.716Z,8.50
2022-11-06T22:02:03.636Z,8.60
2022-11-06T22:04:50.436Z,8.70
2022-11-06T22:07:37.144Z,8.80
2022-11-06T22:10:24.173Z,8.90
2022-11-06T22:13:11.080Z,8.90
2022-11-06T22:16:01.210Z,9.00
2022-11-06T22:18:48.467Z,9.00
2022-11-06T22:21:36.809Z,9.10
2022-11-06T22:24:23.608Z,9.10
2022-11-06T22:27:10.318Z,9.20
2022-11-06T22:29:57.153Z,9.20
2022-11-06T22:32:43.927Z,9.20
2022-11-06T22:35:30.636Z,9.20
2022-11-06T22:38:17.413Z,9.20
2022-11-06T22:41:06.333Z,9.20
2022-11-06T22:43:57.708Z,9.20
2022-11-06T22:46:44.532Z,9.30
2022-11-06T22:49:31.504Z,9.30
2022-11-06T22:52:19.386Z,9.20
2022-11-06T22:55:06.498Z,9.20
2022-11-06T22:57:53.240Z,9.30
2022-11-06T23:00:39.938Z,9.30
2022-11-06T23:03:29.775Z,9.20
2022-11-06T23:06:16.589Z,9.20
2022-11-06T23:09:03.394Z,9.30
2022-11-06T23:11:50.180Z,9.20
2022-11-06T23:14:36.970Z,9.30
2022-11-06T23:17:23.674Z,9.30
2022-11-06T23:20:10.781Z,9.30
2022-11-06T23:22:58.329Z,9.30
2022-11-06T23:25:45.090Z,9.30
2022-11-06T23:28:31.774Z,9.30
2022-11-06T23:31:18.505Z,9.30
2022-11-06T23:34:05.274Z,9.40
2022-11-06T23:36:51.998Z,9.50
2022-11-06T23:39:39.054Z,9.50
2022-11-06T23:42:26.048Z,9.60
2022-11-06T23:45:31.157Z,9.60
2022-11-06T23:48:17.943Z,9.60
2022-11-06T23:51:04.676Z,9.70
2022-11-06T23:53:51.610Z,9.60
2022-11-06T23:56:38.297Z,9.60
2022-11-06T23:59:25.028Z,9.50
